createdAt,value
2017-08-01T00:04:25.699Z,91.13
2017-08-01T00:09:22.519Z,91.66
2017-08-01T00:14:18.227Z,91.75
2017-08-01T00:19:14.839Z,90.64
2017-08-01T00:24:10.752Z,91.27
2017-08-01T00:29:07.905Z,90.59
2017-08-01T00:34:03.430Z,90.02
2017-08-01T00:38:59.720Z,90.59
2017-08-01T00:43:56.672Z,91.17
2017-08-01T00:48:53.433Z,90.98
2017-08-01T00:53:49.064Z,90.59
2017-08-01T00:58:44.867Z,90.98
2017-08-01T01:03:41.936Z,91.08
2017-08-01T01:08:37.486Z,91.85
2017-08-01T01:13:33.429Z,91.85
2017-08-01T01:18:29.222Z,91.75
2017-08-01T01:23:24.959Z,92.52
2017-08-01T01:28:21.288Z,91.75
2017-08-01T01:33:17.175Z,92.52
2017-08-01T01:38:13.139Z,92.71
2017-08-01T01:43:10.367Z,91.75
2017-08-01T01:48:06.604Z,92.52
2017-08-01T01:53:03.920Z,92.23
2017-08-01T01:57:59.863Z,92.04
2017-08-01T02:02:55.997Z,92.13
2017-08-01T02:07:52.597Z,93.10
2017-08-01T02:12:48.615Z,93.96
2017-08-01T02:17:44.843Z,92.91
2017-08-01T02:22:40.863Z,92.81
2017-08-01T02:27:37.544Z,92.52
2017-08-01T02:32:33.744Z,94.25
2017-08-01T02:37:30.767Z,94.01
2017-08-01T02:42:27.542Z,95.07
2017-08-01T02:47:24.215Z,94.88
2017-08-01T02:52:20.776Z,94.68
2017-08-01T02:57:17.313Z,95.36
2017-08-01T03:02:13.031Z,96.51
2017-08-01T03:07:08.926Z,96.13
2017-08-01T03:12:05.012Z,97.52
2017-08-01T03:17:01.819Z,98.19
2017-08-01T03:21:58.730Z,99.99
2017-08-01T03:26:54.194Z,99.99
2017-08-01T03:31:50.208Z,99.99
2017-08-01T03:36:46.258Z,99.99
2017-08-01T03:41:42.166Z,99.99
2017-08-01T03:46:39.670Z,99.99
2017-08-01T03:51:35.357Z,99.99
2017-08-01T03:56:31.197Z,99.99
2017-08-01T04:01:28.412Z,99.99
2017-08-01T04:06:24.569Z,99.99
2017-08-01T04:11:21.767Z,99.99
2017-08-01T04:16:17.459Z,99.99
2017-08-01T04:21:13.578Z,99.99
2017-08-01T04:26:10.597Z,99.99
2017-08-01T04:31:06.978Z,99.99
2017-08-01T04:36:03.513Z,99.99
2017-08-01T04:41:00.412Z,99.99
2017-08-01T04:45:56.341Z,99.99
2017-08-01T04:50:53.598Z,99.99
2017-08-01T04:55:50.430Z,99.99
2017-08-01T05:00:46.403Z,99.99
2017-08-01T05:05:43.467Z,99.99
2017-08-01T05:10:39.718Z,99.99
2017-08-01T05:15:37.190Z,99.99
2017-08-01T05:20:33.926Z,99.99
2017-08-01T05:25:30.950Z,99.99
2017-08-01T05:30:26.743Z,99.99
2017-08-01T05:35:22.869Z,99.99
2017-08-01T05:40:18.905Z,99.99
2017-08-01T05:45:14.686Z,99.11
2017-08-01T05:50:10.828Z,99.49
2017-08-01T05:55:06.895Z,99.99
2017-08-01T06:00:03.880Z,97.19
2017-08-01T06:04:59.964Z,98.54
2017-08-01T06:09:55.896Z,98.72
2017-08-01T06:14:51.975Z,98.10
2017-08-01T06:19:47.980Z,99.59
2017-08-01T06:24:44.180Z,98.00
2017-08-01T06:29:42.159Z,96.70
2017-08-01T06:34:37.535Z,96.89
2017-08-01T06:39:34.499Z,95.69
2017-08-01T06:44:30.385Z,95.55
2017-08-01T06:49:26.716Z,91.89
2017-08-01T06:54:22.934Z,90.58
2017-08-01T06:59:19.353Z,90.58
2017-08-01T07:04:16.533Z,88.75
2017-08-01T07:09:12.629Z,87.93
2017-08-01T07:14:09.297Z,85.27
2017-08-01T07:19:07.233Z,86.62
2017-08-01T07:24:03.948Z,84.41
2017-08-01T07:28:59.730Z,85.08
2017-08-01T07:33:55.622Z,84.98
2017-08-01T07:38:52.796Z,87.05
2017-08-01T07:43:48.995Z,88.50
2017-08-01T07:48:44.933Z,88.11
2017-08-01T07:53:40.978Z,88.02
2017-08-01T07:58:37.401Z,85.88
2017-08-01T08:03:34.225Z,83.75
2017-08-01T08:08:30.791Z,82.35
2017-08-01T08:13:28.381Z,81.04
2017-08-01T08:18:25.263Z,81.29
2017-08-01T08:23:21.845Z,83.47
2017-08-01T08:28:17.619Z,85.40
2017-08-01T08:33:14.543Z,85.40
2017-08-01T08:38:10.201Z,85.59
2017-08-01T08:43:07.374Z,85.49
2017-08-01T08:48:04.396Z,84.67
2017-08-01T08:53:01.516Z,84.43
2017-08-01T08:57:57.053Z,85.25
2017-08-01T09:02:54.130Z,85.25
2017-08-01T09:07:50.242Z,84.67
2017-08-01T09:12:46.305Z,84.77
2017-08-01T09:17:42.400Z,83.12
2017-08-01T09:22:37.990Z,85.35
2017-08-01T09:27:34.509Z,86.07
2017-08-01T09:32:30.984Z,87.81
2017-08-01T09:37:28.503Z,87.43
2017-08-01T09:42:24.634Z,88.59
2017-08-01T09:47:21.710Z,89.31
2017-08-01T09:52:17.300Z,89.61
2017-08-01T09:57:14.007Z,91.15
2017-08-01T10:02:10.399Z,92.11
2017-08-01T10:07:06.135Z,90.95
2017-08-01T10:12:02.116Z,90.57
2017-08-01T10:16:59.126Z,89.89
2017-08-01T10:21:55.714Z,90.09
2017-08-01T10:26:52.352Z,90.72
2017-08-01T10:31:49.011Z,90.77
2017-08-01T10:36:45.339Z,87.96
2017-08-01T10:41:44.749Z,84.52
2017-08-01T10:46:43.179Z,78.99
2017-08-01T10:51:39.792Z,76.89
2017-08-01T10:56:37.033Z,75.19
2017-08-01T11:01:33.162Z,76.41
2017-08-01T11:06:28.359Z,75.63
2017-08-01T11:11:24.462Z,76.95
2017-08-01T11:16:21.179Z,76.95
2017-08-01T11:21:16.635Z,77.05
2017-08-01T11:26:14.485Z,75.70
2017-08-01T11:31:12.466Z,71.92
2017-08-01T11:36:09.998Z,74.24
2017-08-01T11:41:08.067Z,72.53
2017-08-01T11:46:02.859Z,71.56
2017-08-01T11:50:57.709Z,73.08
2017-08-01T11:55:52.815Z,75.85
2017-08-01T12:00:48.760Z,77.88
2017-08-01T12:05:44.384Z,79.10
2017-08-01T12:10:40.327Z,79.68
2017-08-01T12:15:36.436Z,80.59
2017-08-01T12:20:35.063Z,82.29
2017-08-01T12:25:31.644Z,83.61
2017-08-01T12:30:27.245Z,86.02
2017-08-01T12:35:24.622Z,85.68
2017-08-01T12:40:21.591Z,81.90
2017-08-01T12:45:18.126Z,81.23
2017-08-01T12:50:14.779Z,83.31
2017-08-01T12:55:11.399Z,85.25
2017-08-01T13:00:08.588Z,86.99
2017-08-01T13:05:05.191Z,86.94
2017-08-01T13:10:01.906Z,88.20
2017-08-01T13:14:58.215Z,88.01
2017-08-01T13:19:53.890Z,88.39
2017-08-01T13:24:50.673Z,88.54
2017-08-01T13:29:47.290Z,87.48
2017-08-01T13:34:42.781Z,88.68
2017-08-01T13:39:38.623Z,90.57
2017-08-01T13:44:34.530Z,90.95
2017-08-01T13:49:30.354Z,94.87
2017-08-01T13:54:28.045Z,94.72
2017-08-01T13:59:25.241Z,94.72
2017-08-01T14:04:21.458Z,94.29
2017-08-01T14:09:19.700Z,89.99
2017-08-01T14:14:15.094Z,90.28
2017-08-01T14:19:10.995Z,92.50
2017-08-01T14:24:06.703Z,94.14
2017-08-01T14:29:04.774Z,94.34
2017-08-01T14:34:01.029Z,95.88
2017-08-01T14:38:56.668Z,95.11
2017-08-01T14:43:53.078Z,95.30
2017-08-01T14:48:49.421Z,94.53
2017-08-01T14:53:47.618Z,90.28
2017-08-01T14:58:42.975Z,91.25
2017-08-01T15:03:40.919Z,91.44
2017-08-01T15:08:37.766Z,88.35
2017-08-01T15:13:34.539Z,86.32
2017-08-01T15:18:30.197Z,87.19
2017-08-01T15:23:27.295Z,85.22
2017-08-01T15:28:23.848Z,85.94
2017-08-01T15:33:19.652Z,92.41
2017-08-01T15:38:17.395Z,95.64
2017-08-01T15:43:13.683Z,95.54
2017-08-01T15:48:09.370Z,96.22
2017-08-01T15:53:08.807Z,95.25
2017-08-01T15:58:04.843Z,94.58
2017-08-01T16:03:01.855Z,93.52
2017-08-01T16:07:57.641Z,93.47
2017-08-01T16:12:53.696Z,93.04
2017-08-01T16:17:49.630Z,93.52
2017-08-01T16:22:46.770Z,91.83
2017-08-01T16:27:43.307Z,92.22
2017-08-01T16:32:38.743Z,91.25
2017-08-01T16:37:35.739Z,92.12
2017-08-01T16:42:32.461Z,93.76
2017-08-01T16:47:29.111Z,96.89
2017-08-01T16:52:24.690Z,99.60
2017-08-01T16:57:21.339Z,99.99
2017-08-01T17:02:20.361Z,99.99
2017-08-01T17:07:16.873Z,99.99
2017-08-01T17:12:12.437Z,99.99
2017-08-01T17:17:09.535Z,99.99
2017-08-01T17:22:05.116Z,99.99
2017-08-01T17:27:02.027Z,99.99
2017-08-01T17:31:58.606Z,99.99
2017-08-01T17:36:54.296Z,99.99
2017-08-01T17:41:51.474Z,99.99
2017-08-01T17:46:48.349Z,99.99
2017-08-01T17:51:45.407Z,99.99
2017-08-01T17:56:41.026Z,99.99
2017-08-01T18:01:37.046Z,99.99
2017-08-01T18:06:32.829Z,99.99
2017-08-01T18:11:29.031Z,99.99
2017-08-01T18:16:24.809Z,99.99
2017-08-01T18:21:20.676Z,99.99
2017-08-01T18:26:18.433Z,99.99
2017-08-01T18:31:16.159Z,99.99
2017-08-01T18:36:13.404Z,99.99
2017-08-01T18:41:09.951Z,99.99
2017-08-01T18:46:06.550Z,99.99
2017-08-01T18:51:03.202Z,99.99
2017-08-01T18:55:58.870Z,99.99
2017-08-01T19:00:55.775Z,99.99
2017-08-01T19:05:51.080Z,99.99
2017-08-01T19:10:48.505Z,99.99
2017-08-01T19:15:45.154Z,99.99
2017-08-01T19:20:40.959Z,99.99
2017-08-01T19:25:37.477Z,99.99
2017-08-01T19:30:33.527Z,99.99
2017-08-01T19:35:30.183Z,99.99
2017-08-01T19:40:26.458Z,99.99
2017-08-01T19:45:22.904Z,99.99
2017-08-01T19:50:19.758Z,99.99
2017-08-01T19:55:15.774Z,99.99
2017-08-01T20:00:11.324Z,99.99
2017-08-01T20:05:08.839Z,99.99
2017-08-01T20:10:05.628Z,99.99
2017-08-01T20:15:01.136Z,99.99
2017-08-01T20:19:56.966Z,99.99
2017-08-01T20:24:53.331Z,99.99
2017-08-01T20:29:49.380Z,99.99
2017-08-01T20:34:45.426Z,99.99
2017-08-01T20:39:42.378Z,99.99
2017-08-01T20:44:38.968Z,99.99
2017-08-01T20:49:35.623Z,99.99
2017-08-01T20:54:32.238Z,99.99
2017-08-01T20:59:27.767Z,99.99
2017-08-01T21:04:23.930Z,99.99
2017-08-01T21:09:19.833Z,99.99
2017-08-01T21:14:15.698Z,99.99
2017-08-01T21:19:11.561Z,99.99
2017-08-01T21:29:03.608Z,99.99
2017-08-01T21:34:00.587Z,99.99
2017-08-01T21:38:56.152Z,99.99
2017-08-01T21:43:53.047Z,99.99
2017-08-01T21:48:49.373Z,99.99
2017-08-01T21:53:46.161Z,99.99
2017-08-01T21:58:41.673Z,99.99
2017-08-01T22:03:38.875Z,99.99
2017-08-01T22:08:34.566Z,99.99
2017-08-01T22:13:31.293Z,99.99
2017-08-01T22:18:26.779Z,99.99
2017-08-01T22:23:23.748Z,99.99
2017-08-01T22:28:19.425Z,99.99
2017-08-01T22:33:15.463Z,99.99
2017-08-01T22:38:13.247Z,99.99
2017-08-01T22:43:09.630Z,99.99
2017-08-01T22:48:06.196Z,99.99
2017-08-01T22:53:01.670Z,99.99
2017-08-01T22:57:57.590Z,99.99
2017-08-01T23:02:53.586Z,99.99
2017-08-01T23:07:49.472Z,99.99
2017-08-01T23:12:46.900Z,99.99
2017-08-01T23:17:43.310Z,99.99
2017-08-01T23:22:40.797Z,99.99
2017-08-01T23:27:40.423Z,99.99
2017-08-01T23:32:35.878Z,99.99
2017-08-01T23:37:31.845Z,99.99
2017-08-01T23:42:29.564Z,99.99
2017-08-01T23:47:26.708Z,99.99
2017-08-01T23:52:22.126Z,99.99
2017-08-01T23:57:18.885Z,99.99
